Time;durP1;ratioP1;P1;durP2;ratioP2;P2;SDS_P1;SDS_P2;PMS_P1;PMS_P2;Temp;Humidity;BMP_temperature;BMP_pressure;BME280_temperature;BME280_humidity;BME280_pressure;Samples;Min_cycle;Max_cycle;Signal;HPM_P1;HPM_P2
2022/01/12 00:01:03;;;;;;;63.40;27.60;;;4.20;99.90;;;;;;4805578;29;20094;-74
2022/01/12 00:03:28;;;;;;;55.72;26.50;;;4.20;99.90;;;;;;4804482;29;20162;-74
2022/01/12 00:05:54;;;;;;;56.35;27.30;;;4.20;99.90;;;;;;4805203;29;20094;-74
2022/01/12 00:08:20;;;;;;;62.75;28.23;;;4.30;99.90;;;;;;4798926;29;20062;-75
2022/01/12 00:10:45;;;;;;;69.68;28.02;;;4.20;99.90;;;;;;4804642;29;20502;-75
2022/01/12 00:13:11;;;;;;;69.28;28.48;;;4.20;99.90;;;;;;4804989;29;20103;-75
2022/01/12 00:15:37;;;;;;;69.72;27.40;;;4.40;99.90;;;;;;4804686;29;20042;-74
2022/01/12 00:18:02;;;;;;;78.07;28.15;;;4.20;99.90;;;;;;4799914;29;20047;-75
2022/01/12 00:20:28;;;;;;;67.03;29.13;;;4.30;99.90;;;;;;4795307;29;20058;-75
2022/01/12 00:22:54;;;;;;;92.72;29.67;;;4.20;99.90;;;;;;4795708;29;20475;-75
2022/01/12 00:33:15;;;;;;;61.30;28.08;;;4.30;99.90;;;;;;4804849;29;20062;-75
2022/01/12 00:35:45;;;;;;;112.30;31.73;;;4.30;99.90;;;;;;4792216;29;20054;-75
2022/01/12 00:38:11;;;;;;;77.60;29.75;;;4.30;99.90;;;;;;4808589;29;20054;-75
2022/01/12 00:40:41;;;;;;;86.82;29.98;;;4.30;99.90;;;;;;4807133;29;20494;-75
2022/01/12 00:43:07;;;;;;;70.28;29.50;;;4.30;99.90;;;;;;4792750;29;20059;-75
2022/01/12 00:45:33;;;;;;;89.55;30.90;;;4.30;99.90;;;;;;4808732;29;20058;-74
2022/01/12 00:47:58;;;;;;;75.45;31.10;;;4.20;99.90;;;;;;4807279;29;20463;-74
2022/01/12 00:50:24;;;;;;;71.18;30.48;;;4.20;99.90;;;;;;4808742;29;20062;-74
2022/01/12 00:52:50;;;;;;;86.53;31.05;;;4.30;99.90;;;;;;4808258;29;20518;-74
2022/01/12 00:55:16;;;;;;;64.28;29.60;;;4.40;99.90;;;;;;4808798;29;20053;-75
2022/01/12 00:57:42;;;;;;;68.78;29.60;;;4.20;99.90;;;;;;4808209;29;20047;-74
2022/01/12 01:00:08;;;;;;;88.60;31.38;;;4.30;99.90;;;;;;4808688;29;20059;-74
2022/01/12 01:02:34;;;;;;;109.38;32.53;;;4.30;99.90;;;;;;4808545;29;20050;-74
2022/01/12 01:05:01;;;;;;;92.60;31.20;;;4.30;99.90;;;;;;4806619;29;20058;-75
2022/01/12 01:07:27;;;;;;;95.03;30.27;;;4.30;99.90;;;;;;4807322;29;20058;-74
2022/01/12 01:10:05;;;;;;;95.90;31.73;;;4.30;99.90;;;;;;4806762;29;20053;-75
2022/01/12 01:12:32;;;;;;;96.78;30.63;;;4.20;99.90;;;;;;4793831;29;20042;-75
2022/01/12 01:25:52;;;;;;;85.47;31.75;;;4.30;99.90;;;;;;4800894;29;20057;-75
2022/01/12 01:28:18;;;;;;;87.75;31.77;;;4.30;99.90;;;;;;4805887;29;20055;-75
2022/01/12 01:30:44;;;;;;;104.82;32.28;;;4.40;99.90;;;;;;4805937;29;20395;-75
2022/01/12 01:33:11;;;;;;;133.80;33.47;;;4.40;99.90;;;;;;4805843;29;20134;-74
2022/01/12 01:35:39;;;;;;;143.32;34.88;;;4.30;99.90;;;;;;4803849;29;20082;-75
2022/01/12 01:38:05;;;;;;;98.22;32.45;;;4.40;99.90;;;;;;4795282;29;20116;-75
2022/01/12 01:40:32;;;;;;;125.65;34.05;;;4.40;99.90;;;;;;4788268;30;20055;-74
2022/01/12 01:53:46;;;;;;;114.35;32.88;;;4.40;99.90;;;;;;4791893;29;20062;-75
2022/01/12 01:56:12;;;;;;;116.13;34.97;;;4.30;99.90;;;;;;4807099;29;20406;-75
2022/01/12 01:58:38;;;;;;;99.53;31.63;;;4.30;99.90;;;;;;4806338;29;20092;-75
2022/01/12 02:01:04;;;;;;;105.25;32.78;;;4.40;99.90;;;;;;4790901;29;20559;-75
2022/01/12 02:03:30;;;;;;;136.43;34.47;;;4.40;99.90;;;;;;4807480;29;20063;-75
2022/01/12 02:05:56;;;;;;;126.40;33.95;;;4.30;99.90;;;;;;4805863;29;20196;-74
2022/01/12 02:08:22;;;;;;;158.93;34.47;;;4.40;99.90;;;;;;4805974;29;20514;-74
2022/01/12 02:10:55;;;;;;;112.63;34.40;;;4.40;99.90;;;;;;4790953;29;20061;-75
2022/01/12 02:13:21;;;;;;;146.25;35.35;;;4.40;99.90;;;;;;4806050;29;20050;-75
2022/01/12 02:15:47;;;;;;;206.38;38.22;;;4.40;99.90;;;;;;4806218;29;20391;-74
2022/01/12 02:40:28;;;;;;;144.97;35.30;;;4.40;99.90;;;;;;4822679;29;20058;-74
2022/01/12 02:43:07;;;;;;;139.85;32.92;;;4.50;99.90;;;;;;4809148;29;20119;-75
2022/01/12 02:53:52;;;;;;;170.75;33.35;;;4.50;99.90;;;;;;4812320;29;20051;-75
2022/01/12 02:56:19;;;;;;;311.17;40.45;;;4.50;99.90;;;;;;4804720;29;20042;-75
2022/01/12 02:58:46;;;;;;;193.55;35.38;;;4.40;99.90;;;;;;4806625;29;20427;-75
2022/01/12 03:04:06;;;;;;;137.07;31.40;;;4.60;99.90;;;;;;4806199;29;20101;-75
2022/01/12 03:06:35;;;;;;;149.02;33.08;;;4.60;99.90;;;;;;4806496;29;20142;-75
2022/01/12 03:09:01;;;;;;;99.63;31.90;;;4.50;99.90;;;;;;4806039;29;20109;-75
2022/01/12 03:11:27;;;;;;;160.52;33.20;;;4.50;99.90;;;;;;4790428;29;20082;-74
2022/01/12 03:13:53;;;;;;;314.95;39.88;;;4.40;99.90;;;;;;4805167;29;20402;-74
2022/01/12 03:16:22;;;;;;;380.83;42.50;;;4.50;99.90;;;;;;4804778;29;20042;-74
2022/01/12 03:18:49;;;;;;;251.48;36.33;;;4.50;99.90;;;;;;4806588;29;20108;-74
2022/01/12 03:21:16;;;;;;;284.65;36.72;;;4.50;99.90;;;;;;4805682;29;20063;-74
2022/01/12 03:23:42;;;;;;;174.90;32.72;;;4.40;99.90;;;;;;4805073;29;20055;-74
2022/01/12 03:26:09;;;;;;;276.08;38.47;;;4.50;99.90;;;;;;4789472;29;20402;-74
2022/01/12 03:28:35;;;;;;;136.10;32.30;;;4.50;99.90;;;;;;4804600;29;20615;-75
2022/01/12 03:36:25;;;;;;;117.80;30.23;;;4.50;99.90;;;;;;4805663;29;20058;-74
2022/01/12 03:38:53;;;;;;;212.82;34.25;;;4.50;99.90;;;;;;4805611;29;20054;-74
2022/01/12 03:41:19;;;;;;;126.78;31.08;;;4.50;99.90;;;;;;4804488;29;20050;-74
2022/01/12 03:43:45;;;;;;;149.63;33.78;;;4.50;99.90;;;;;;4804022;29;20558;-74
2022/01/12 03:46:11;;;;;;;127.88;31.30;;;4.50;99.90;;;;;;4805001;29;20089;-75
2022/01/12 03:48:36;;;;;;;456.05;43.15;;;4.40;99.90;;;;;;4789940;29;20383;-74
2022/01/12 03:51:02;;;;;;;145.90;31.30;;;4.50;99.90;;;;;;4805707;29;20058;-75
2022/01/12 03:53:28;;;;;;;96.28;30.73;;;4.30;99.90;;;;;;4804293;29;20054;-74
2022/01/12 03:55:53;;;;;;;149.35;30.17;;;4.40;99.90;;;;;;4798226;29;20129;-74
2022/01/12 03:58:19;;;;;;;137.27;29.92;;;4.20;99.90;;;;;;4804839;29;20050;-74
2022/01/12 04:00:45;;;;;;;220.38;31.67;;;4.30;99.90;;;;;;4805181;29;20410;-75
2022/01/12 04:03:12;;;;;;;286.42;31.73;;;4.10;99.90;;;;;;4804921;29;20604;-75
2022/01/12 04:08:20;;;;;;;344.08;32.67;;;4.10;99.90;;;;;;4804438;29;20120;-74
2022/01/12 04:10:46;;;;;;;836.00;48.38;;;4.20;99.90;;;;;;4793133;29;20514;-74
2022/01/12 04:13:13;;;;;;;411.48;31.60;;;4.20;99.90;;;;;;4800324;29;20514;-75
2022/01/12 04:15:39;;;;;;;487.90;35.65;;;4.00;99.90;;;;;;4804059;29;20043;-74
2022/01/12 04:18:05;;;;;;;429.98;28.83;;;3.90;99.90;;;;;;4798850;29;20052;-75
2022/01/12 04:20:30;;;;;;;680.35;39.80;;;4.00;99.90;;;;;;4796338;29;20086;-74
2022/01/12 04:25:41;;;;;;;918.80;45.78;;;3.90;99.90;;;;;;4797434;29;20050;-74
2022/01/12 04:28:06;;;;;;;763.00;45.05;;;3.80;99.90;;;;;;4805042;29;20047;-75
2022/01/12 04:30:32;;;;;;;691.70;37.90;;;3.70;99.90;;;;;;4804920;29;20051;-75
2022/01/12 04:32:57;;;;;;;798.70;40.67;;;3.80;99.90;;;;;;4805377;29;20054;-74
2022/01/12 04:35:26;;;;;;;516.28;29.55;;;3.70;99.90;;;;;;4803393;29;20062;-74
2022/01/12 04:37:51;;;;;;;624.90;32.72;;;3.60;99.90;;;;;;4804336;29;20058;-74
2022/01/12 04:40:17;;;;;;;575.03;30.35;;;3.80;99.90;;;;;;4804849;29;20057;-75
2022/01/12 04:42:43;;;;;;;511.95;30.70;;;3.70;99.90;;;;;;4804178;29;20482;-74
2022/01/12 04:50:41;;;;;;;;;;;3.50;99.90;;;;;;4804116;29;20509;-75
2022/01/12 04:53:07;;;;;;;844.13;40.50;;;3.50;99.90;;;;;;4803987;29;19929;-75
2022/01/12 04:55:33;;;;;;;671.10;37.97;;;3.50;99.90;;;;;;4804813;29;20391;-74
2022/01/12 04:57:58;;;;;;;615.42;31.63;;;3.40;99.90;;;;;;4805047;29;20054;-75
2022/01/12 05:00:25;;;;;;;593.03;32.08;;;3.30;99.90;;;;;;4803464;29;20051;-74
2022/01/12 05:13:42;;;;;;;328.73;23.48;;;3.10;99.90;;;;;;4808323;29;20101;-74
2022/01/12 05:16:10;;;;;;;396.80;24.30;;;3.20;99.90;;;;;;4792206;29;20058;-75
2022/01/12 05:18:36;;;;;;;369.15;23.73;;;3.10;99.90;;;;;;4806719;29;20062;-75
2022/01/12 05:21:01;;;;;;;546.28;31.02;;;3.00;99.90;;;;;;4807207;29;20051;-75
2022/01/12 05:23:27;;;;;;;394.88;25.35;;;3.00;99.90;;;;;;4807851;29;20047;-75
2022/01/12 05:25:53;;;;;;;285.85;19.17;;;3.00;99.90;;;;;;4808096;29;20383;-75
2022/01/12 05:28:20;;;;;;;300.08;23.80;;;2.90;99.90;;;;;;4806593;29;20058;-76
2022/01/12 05:30:45;;;;;;;338.38;19.48;;;2.70;99.90;;;;;;4808170;29;20146;-74
2022/01/12 05:33:11;;;;;;;340.77;22.13;;;2.70;99.90;;;;;;4808123;29;20086;-75
2022/01/12 05:35:37;;;;;;;259.92;20.35;;;2.60;99.90;;;;;;4791371;29;20059;-74
2022/01/12 05:38:04;;;;;;;256.85;20.63;;;2.50;99.90;;;;;;4808112;29;20104;-80
2022/01/12 05:40:29;;;;;;;175.25;15.23;;;2.50;99.90;;;;;;4806170;29;20055;-75
2022/01/12 05:42:56;;;;;;;170.73;16.00;;;2.40;99.90;;;;;;4807849;29;20134;-75
2022/01/12 05:45:22;;;;;;;266.40;18.08;;;2.30;99.90;;;;;;4806285;29;20065;-76
2022/01/12 05:50:14;;;;;;;171.75;14.45;;;2.30;99.90;;;;;;4806224;29;20058;-77
2022/01/12 05:52:40;;;;;;;352.02;19.27;;;2.20;99.90;;;;;;4806605;29;20046;-77
2022/01/12 05:55:07;;;;;;;378.50;21.90;;;2.20;99.90;;;;;;4806698;29;20482;-77
2022/01/12 05:57:33;;;;;;;275.80;15.13;;;2.10;99.90;;;;;;4806165;29;20054;-78
2022/01/12 05:59:59;;;;;;;288.83;18.92;;;2.10;99.90;;;;;;4791122;29;20050;-75
2022/01/12 06:02:24;;;;;;;102.68;12.13;;;2.10;99.90;;;;;;4805988;29;20138;-76
2022/01/12 06:04:50;;;;;;;316.23;20.42;;;2.10;99.90;;;;;;4801137;29;20163;-74
2022/01/12 06:07:16;;;;;;;245.18;20.25;;;2.20;99.90;;;;;;4807279;29;20062;-75
2022/01/12 06:09:42;;;;;;;230.05;18.73;;;2.20;99.90;;;;;;4806999;29;20422;-74
2022/01/12 06:12:08;;;;;;;328.25;23.27;;;2.10;99.90;;;;;;4806317;29;20095;-75
2022/01/12 06:14:33;;;;;;;198.65;14.73;;;2.20;99.90;;;;;;4806408;29;20502;-74
2022/01/12 06:16:59;;;;;;;306.80;18.50;;;2.20;99.90;;;;;;4807002;29;20050;-74
2022/01/12 06:19:25;;;;;;;361.20;23.10;;;2.30;99.90;;;;;;4806846;29;20506;-74
2022/01/12 06:21:50;;;;;;;270.10;16.88;;;2.20;99.90;;;;;;4806775;29;20498;-74
2022/01/12 06:24:16;;;;;;;303.98;18.60;;;2.20;99.90;;;;;;4806898;29;20055;-74
2022/01/12 06:26:43;;;;;;;231.93;16.85;;;2.20;99.90;;;;;;4806812;29;20047;-74
2022/01/12 06:31:35;;;;;;;221.68;13.77;;;2.50;99.90;;;;;;4805340;29;20133;-74
2022/01/12 06:34:01;;;;;;;165.75;13.00;;;2.40;99.90;;;;;;4805315;29;20524;-75
2022/01/12 06:36:27;;;;;;;347.67;21.77;;;2.40;99.90;;;;;;4806546;29;20130;-74
2022/01/12 06:38:52;;;;;;;324.50;19.02;;;2.50;99.90;;;;;;4805597;29;20139;-75
2022/01/12 06:41:18;;;;;;;192.63;12.40;;;2.50;99.90;;;;;;4806887;29;20255;-74
2022/01/12 06:43:44;;;;;;;181.95;15.43;;;2.50;99.90;;;;;;4790147;29;20130;-74
2022/01/12 06:46:09;;;;;;;179.00;13.63;;;2.60;99.90;;;;;;4805762;29;20507;-74
2022/01/12 06:48:35;;;;;;;247.55;14.68;;;2.50;99.90;;;;;;4806330;29;20047;-74
2022/01/12 06:51:01;;;;;;;280.35;16.75;;;2.80;99.90;;;;;;4806630;29;20051;-74
2022/01/12 06:53:26;;;;;;;273.50;14.57;;;2.60;99.90;;;;;;4806474;29;20050;-74
2022/01/12 06:55:52;;;;;;;287.10;14.20;;;2.60;99.90;;;;;;4806022;29;20043;-74
2022/01/12 06:58:18;;;;;;;258.63;14.25;;;2.60;99.90;;;;;;4806530;29;20084;-74
2022/01/12 07:00:43;;;;;;;195.63;12.90;;;2.70;99.90;;;;;;4805740;29;20047;-74
2022/01/12 07:03:09;;;;;;;239.98;14.52;;;2.70;99.90;;;;;;4806642;29;20098;-74
2022/01/12 07:05:35;;;;;;;148.18;11.63;;;2.70;99.90;;;;;;4804734;29;20054;-75
2022/01/12 07:08:00;;;;;;;103.32;11.98;;;2.60;99.90;;;;;;4806596;29;20448;-74
2022/01/12 07:10:26;;;;;;;170.27;14.52;;;2.60;99.90;;;;;;4806319;29;20051;-74
2022/01/12 07:12:52;;;;;;;127.40;10.82;;;2.50;99.90;;;;;;4805914;29;20402;-74
2022/01/12 07:15:17;;;;;;;112.93;11.27;;;2.70;99.90;;;;;;4805068;29;20051;-74
2022/01/12 07:17:43;;;;;;;107.15;10.40;;;2.50;99.90;;;;;;4805667;29;20664;-74
2022/01/12 07:20:09;;;;;;;103.93;10.88;;;2.50;99.90;;;;;;4804044;29;20459;-75
2022/01/12 07:22:35;;;;;;;141.23;13.63;;;2.70;99.90;;;;;;4805142;29;20051;-74
2022/01/12 07:25:00;;;;;;;83.65;10.02;;;2.60;99.90;;;;;;4804815;29;20365;-74
2022/01/12 07:27:26;;;;;;;98.80;10.65;;;2.60;99.90;;;;;;4804935;29;20043;-74
2022/01/12 07:29:52;;;;;;;113.95;11.20;;;2.60;99.90;;;;;;4804110;29;20051;-74
2022/01/12 07:32:18;;;;;;;177.32;13.07;;;2.70;99.90;;;;;;4805235;29;20566;-74
2022/01/12 07:34:43;;;;;;;145.07;11.85;;;2.70;99.90;;;;;;4805955;29;20051;-74
2022/01/12 07:37:10;;;;;;;176.50;11.60;;;2.60;99.90;;;;;;4805973;29;20042;-74
2022/01/12 07:39:35;;;;;;;127.68;11.13;;;2.70;99.90;;;;;;4806046;29;20054;-73
2022/01/12 07:42:01;;;;;;;206.05;14.00;;;2.90;99.90;;;;;;4805531;29;20057;-75
2022/01/12 07:44:27;;;;;;;222.48;15.15;;;2.90;99.90;;;;;;4805802;29;20138;-74
2022/01/12 07:46:52;;;;;;;200.80;15.55;;;2.80;99.90;;;;;;4805431;29;20039;-74
2022/01/12 07:49:18;;;;;;;154.50;13.90;;;3.10;99.90;;;;;;4805805;29;20123;-74
2022/01/12 07:51:44;;;;;;;160.70;15.57;;;2.90;99.90;;;;;;4804576;29;20072;-75
2022/01/12 07:54:09;;;;;;;145.20;14.40;;;3.10;99.90;;;;;;4805756;29;20133;-74
2022/01/12 07:56:35;;;;;;;110.43;13.05;;;3.30;99.90;;;;;;4805821;29;20485;-74
2022/01/12 07:59:00;;;;;;;107.53;12.32;;;2.90;99.90;;;;;;4805311;29;20490;-74
2022/01/12 08:01:26;;;;;;;196.00;15.18;;;3.10;99.90;;;;;;4805744;29;20447;-74
2022/01/12 08:03:52;;;;;;;126.40;12.82;;;3.20;99.90;;;;;;4805352;29;20395;-74
2022/01/12 08:06:17;;;;;;;139.40;14.00;;;3.00;99.90;;;;;;4805678;29;20059;-74
2022/01/12 08:08:43;;;;;;;158.27;14.70;;;3.20;99.90;;;;;;4805572;29;20062;-74
2022/01/12 08:11:09;;;;;;;136.05;14.18;;;3.30;99.90;;;;;;4804035;29;20418;-74
2022/01/12 08:13:34;;;;;;;225.50;16.38;;;3.10;99.90;;;;;;4804512;29;20429;-74
2022/01/12 08:16:00;;;;;;;258.70;17.95;;;3.30;99.90;;;;;;4804059;29;20521;-74
2022/01/12 08:18:26;;;;;;;225.57;14.48;;;3.20;99.90;;;;;;4804412;29;20066;-74
2022/01/12 08:20:51;;;;;;;302.35;18.52;;;3.30;99.90;;;;;;4805086;29;20098;-75
2022/01/12 08:23:17;;;;;;;272.63;13.50;;;3.40;99.90;;;;;;4805413;29;20152;-74
2022/01/12 08:25:43;;;;;;;233.60;13.27;;;3.30;99.90;;;;;;4805376;29;20046;-74
2022/01/12 08:28:08;;;;;;;230.85;12.43;;;3.40;99.90;;;;;;4803867;29;20050;-74
2022/01/12 08:30:35;;;;;;;196.60;12.45;;;3.30;99.90;;;;;;4804035;29;20129;-74
2022/01/12 08:33:01;;;;;;;244.85;14.55;;;3.40;99.90;;;;;;4804447;29;20184;-74
2022/01/12 08:35:27;;;;;;;241.65;15.38;;;3.60;99.90;;;;;;4803283;29;20062;-74
2022/01/12 08:37:53;;;;;;;221.13;13.82;;;3.50;99.90;;;;;;4788149;29;20059;-75
2022/01/12 08:40:19;;;;;;;252.82;13.63;;;3.60;99.90;;;;;;4805298;29;20132;-74
2022/01/12 08:42:44;;;;;;;272.67;16.38;;;3.70;99.90;;;;;;4807859;29;20051;-74
2022/01/12 08:45:10;;;;;;;266.92;16.95;;;3.40;99.90;;;;;;4808385;29;20047;-74
2022/01/12 08:47:36;;;;;;;199.63;13.82;;;3.70;99.90;;;;;;4807759;29;20417;-74
2022/01/12 08:50:03;;;;;;;155.75;12.38;;;3.60;99.90;;;;;;4792494;29;20054;-75
2022/01/12 08:52:30;;;;;;;162.90;12.80;;;3.60;99.90;;;;;;4808858;29;20057;-74
2022/01/12 08:54:56;;;;;;;231.82;17.52;;;3.70;99.90;;;;;;4807317;29;20057;-74
2022/01/12 08:57:21;;;;;;;160.75;13.50;;;3.50;99.90;;;;;;4807564;29;20050;-74
2022/01/12 08:59:47;;;;;;;145.38;12.77;;;3.70;99.90;;;;;;4807498;29;20090;-74
2022/01/12 09:02:14;;;;;;;149.93;13.10;;;3.50;99.90;;;;;;4807094;29;20311;-75
2022/01/12 09:04:44;;;;;;;83.88;10.68;;;3.80;99.90;;;;;;4807399;29;20070;-74
2022/01/12 09:07:10;;;;;;;136.10;11.68;;;3.60;99.90;;;;;;4808184;29;20043;-74
2022/01/12 09:09:35;;;;;;;144.52;12.40;;;3.70;99.90;;;;;;4808620;29;20549;-74
2022/01/12 09:12:02;;;;;;;154.38;12.85;;;3.90;99.90;;;;;;4808226;29;20110;-75
2022/01/12 09:14:28;;;;;;;141.02;14.93;;;3.70;99.90;;;;;;4806951;29;20051;-74
2022/01/12 09:16:55;;;;;;;129.20;11.88;;;3.80;99.90;;;;;;4808395;29;20054;-74
2022/01/12 09:19:21;;;;;;;141.32;11.43;;;3.80;99.90;;;;;;4807253;29;20203;-74
2022/01/12 09:21:47;;;;;;;153.35;14.77;;;3.90;99.90;;;;;;4807212;29;20571;-74
2022/01/12 09:24:13;;;;;;;150.68;14.85;;;4.00;99.90;;;;;;4807917;29;20108;-74
2022/01/12 09:26:38;;;;;;;111.95;12.20;;;3.90;99.90;;;;;;4808261;29;20406;-74
2022/01/12 09:29:04;;;;;;;96.00;11.20;;;4.00;99.90;;;;;;4807523;29;20516;-74
2022/01/12 09:31:30;;;;;;;135.32;13.68;;;4.00;99.90;;;;;;4808254;29;20066;-74
2022/01/12 09:33:56;;;;;;;84.22;11.60;;;3.90;99.90;;;;;;4808279;29;20047;-74
2022/01/12 09:36:21;;;;;;;118.75;13.23;;;4.10;99.90;;;;;;4807561;29;20082;-74
2022/01/12 09:38:47;;;;;;;59.30;10.90;;;4.00;99.90;;;;;;4806365;29;20455;-74
2022/01/12 09:41:13;;;;;;;48.55;9.77;;;4.10;99.90;;;;;;4807328;29;20051;-74
2022/01/12 09:43:39;;;;;;;51.67;8.98;;;4.10;99.90;;;;;;4807941;29;20069;-74
2022/01/12 09:46:05;;;;;;;44.53;8.32;;;4.30;99.90;;;;;;4805991;29;20517;-74
2022/01/12 09:48:34;;;;;;;58.53;8.52;;;4.30;99.90;;;;;;4807963;29;20055;-74
2022/01/12 09:51:01;;;;;;;46.97;8.27;;;4.40;99.90;;;;;;4807981;29;20115;-74
2022/01/12 09:53:28;;;;;;;63.97;9.57;;;4.30;99.90;;;;;;4807141;29;20047;-74
2022/01/12 09:55:54;;;;;;;34.17;7.10;;;4.50;99.90;;;;;;4806623;29;20042;-74
2022/01/12 09:58:20;;;;;;;50.58;7.72;;;4.50;99.90;;;;;;4806170;29;20560;-74
2022/01/12 10:00:56;;;;;;;53.20;8.27;;;4.50;99.90;;;;;;4806582;29;20051;-74
2022/01/12 10:03:23;;;;;;;39.95;7.43;;;4.60;99.90;;;;;;4807183;29;20098;-74
2022/01/12 10:05:49;;;;;;;27.70;6.53;;;4.40;99.90;;;;;;4805991;29;20518;-74
2022/01/12 10:08:15;;;;;;;39.03;7.57;;;4.40;99.90;;;;;;4806015;29;20101;-74
2022/01/12 10:10:42;;;;;;;52.38;6.78;;;4.50;99.90;;;;;;4806332;29;20063;-74
2022/01/12 10:13:25;;;;;;;87.05;7.57;;;4.50;99.90;;;;;;4806818;29;20090;-74
2022/01/12 10:15:51;;;;;;;74.90;7.22;;;4.50;99.90;;;;;;4806276;29;20054;-74
2022/01/12 10:18:18;;;;;;;156.20;10.13;;;4.80;99.90;;;;;;4807085;29;20446;-75
2022/01/12 10:20:44;;;;;;;55.05;7.60;;;4.80;99.90;;;;;;4807397;29;20105;-76
2022/01/12 10:23:11;;;;;;;236.30;15.10;;;4.80;99.90;;;;;;4805784;29;20062;-76
2022/01/12 10:25:37;;;;;;;98.47;8.13;;;4.70;99.90;;;;;;4806185;29;20090;-75
2022/01/12 10:28:20;;;;;;;134.88;9.88;;;4.90;99.90;;;;;;4807194;29;20101;-75
2022/01/12 10:31:00;;;;;;;126.60;9.43;;;4.90;99.90;;;;;;4806168;29;20119;-75
2022/01/12 10:33:27;;;;;;;105.10;8.57;;;5.00;99.90;;;;;;4790825;29;20062;-80
2022/01/12 10:36:01;;;;;;;107.18;9.10;;;5.00;99.90;;;;;;4807173;29;20051;-79
2022/01/12 10:38:27;;;;;;;101.40;8.02;;;5.20;99.90;;;;;;4806585;29;20107;-75
2022/01/12 10:40:57;;;;;;;180.18;8.93;;;5.20;99.90;;;;;;4806314;29;20051;-76
2022/01/12 10:43:36;;;;;;;163.35;9.10;;;5.00;99.90;;;;;;4806201;29;20054;-76
2022/01/12 10:46:06;;;;;;;129.25;8.70;;;5.10;99.90;;;;;;4806705;29;20051;-76
2022/01/12 10:48:38;;;;;;;;;;;5.00;99.90;;;;;;4806686;29;20127;-77
2022/01/12 10:51:04;;;;;;;134.20;8.52;;;5.20;99.90;;;;;;4806763;29;19964;-77
2022/01/12 10:53:33;;;;;;;256.85;9.32;;;5.10;99.90;;;;;;4806383;29;20477;-77
2022/01/12 10:56:06;;;;;;;113.72;7.72;;;5.10;99.90;;;;;;4806817;29;20043;-77
2022/01/12 10:58:32;;;;;;;205.93;8.77;;;5.30;99.90;;;;;;4806257;29;20063;-77
2022/01/12 11:00:58;;;;;;;109.50;7.00;;;5.50;99.90;;;;;;4805171;29;20508;-77
2022/01/12 11:03:24;;;;;;;99.95;5.97;;;5.40;99.90;;;;;;4805087;29;20066;-77
2022/01/12 11:05:50;;;;;;;94.32;5.93;;;5.50;99.90;;;;;;4805565;29;20055;-76
2022/01/12 11:08:17;;;;;;;163.02;7.93;;;5.70;99.90;;;;;;4804853;29;20383;-76
2022/01/12 11:10:44;;;;;;;129.07;6.90;;;5.50;99.90;;;;;;4806497;29;20054;-76
2022/01/12 11:13:10;;;;;;;137.77;7.40;;;5.50;99.90;;;;;;4806399;29;20106;-76
2022/01/12 11:15:36;;;;;;;107.32;6.75;;;5.60;99.90;;;;;;4789904;29;20063;-76
2022/01/12 11:18:01;;;;;;;127.53;6.82;;;5.60;99.90;;;;;;4790188;29;20055;-76
2022/01/12 11:20:28;;;;;;;96.80;6.13;;;5.70;99.90;;;;;;4805634;29;20371;-76
2022/01/12 11:23:07;;;;;;;169.23;7.50;;;5.70;99.90;;;;;;4806102;29;20065;-75
2022/01/12 11:25:41;;;;;;;115.60;5.53;;;5.70;99.90;;;;;;4805792;29;20236;-76
2022/01/12 11:28:18;;;;;;;73.80;5.55;;;5.80;99.90;;;;;;4805103;29;20055;-76
2022/01/12 11:30:50;;;;;;;69.70;5.47;;;5.70;99.90;;;;;;4805034;29;20054;-76
2022/01/12 11:33:20;;;;;;;64.28;5.00;;;5.80;99.90;;;;;;4805683;29;20517;-78
2022/01/12 11:35:51;;;;;;;65.28;6.50;;;5.80;99.90;;;;;;4804978;29;20055;-76
2022/01/12 11:38:27;;;;;;;49.05;6.22;;;6.00;99.90;;;;;;4804607;29;20133;-77
2022/01/12 11:41:12;;;;;;;57.03;5.85;;;5.90;99.90;;;;;;4806029;29;20439;-76
2022/01/12 11:43:50;;;;;;;35.33;5.75;;;6.10;99.90;;;;;;4805592;29;20066;-76
2022/01/12 11:46:23;;;;;;;33.75;5.50;;;6.10;99.90;;;;;;4804898;29;20434;-76
2022/01/12 11:48:53;;;;;;;24.75;5.50;;;6.20;99.90;;;;;;4804822;29;20058;-76
2022/01/12 11:51:20;;;;;;;16.17;5.35;;;6.30;99.90;;;;;;4789472;29;20183;-77
2022/01/12 11:53:51;;;;;;;15.05;5.25;;;6.30;99.90;;;;;;4804641;29;20134;-76
2022/01/12 11:56:21;;;;;;;13.88;5.10;;;6.20;99.90;;;;;;4805803;29;20057;-76
2022/01/12 11:58:51;;;;;;;13.27;5.15;;;6.20;99.90;;;;;;4804788;29;20387;-76
2022/01/12 12:01:16;;;;;;;14.73;5.22;;;6.10;99.90;;;;;;4804530;29;20055;-77
2022/01/12 12:03:42;;;;;;;23.45;6.07;;;6.10;99.90;;;;;;4805325;29;20397;-77
2022/01/12 12:06:20;;;;;;;15.73;5.65;;;6.10;99.90;;;;;;4804313;29;20059;-77
2022/01/12 12:09:18;;;;;;;17.10;6.28;;;6.00;99.90;;;;;;4805655;29;20047;-76
2022/01/12 12:11:51;;;;;;;16.65;6.47;;;6.00;99.90;;;;;;4804578;29;20073;-76
2022/01/12 12:14:17;;;;;;;24.17;6.35;;;6.00;99.90;;;;;;4789994;29;20054;-76
2022/01/12 12:16:43;;;;;;;20.48;5.82;;;6.10;99.90;;;;;;4804808;29;20058;-76
2022/01/12 12:19:09;;;;;;;46.72;6.47;;;5.90;99.90;;;;;;4804417;29;20050;-76
2022/01/12 12:21:35;;;;;;;16.95;5.45;;;6.00;99.90;;;;;;4804506;29;20520;-76
2022/01/12 12:24:07;;;;;;;18.65;5.40;;;6.10;99.90;;;;;;4803916;29;20494;-76
2022/01/12 12:26:33;;;;;;;25.05;6.05;;;5.90;99.90;;;;;;4804833;29;20051;-76
2022/01/12 12:28:58;;;;;;;24.33;5.90;;;6.00;99.90;;;;;;4805481;29;20051;-76
2022/01/12 12:31:25;;;;;;;30.35;5.80;;;6.10;99.90;;;;;;4804038;29;20375;-77
2022/01/12 12:34:04;;;;;;;22.55;5.72;;;6.00;99.90;;;;;;4789564;29;20063;-76
2022/01/12 12:36:30;;;;;;;27.98;6.28;;;6.00;99.90;;;;;;4804953;29;20565;-76
2022/01/12 12:39:08;;;;;;;63.40;6.30;;;6.00;99.90;;;;;;4805291;29;20138;-76
2022/01/12 12:41:41;;;;;;;14.48;6.70;;;6.00;99.90;;;;;;4774064;29;20409;-76
2022/01/12 12:44:17;;;;;;;22.40;6.93;;;6.00;99.90;;;;;;4804308;29;20054;-76
2022/01/12 12:46:43;;;;;;;26.40;6.50;;;6.00;99.90;;;;;;4803755;29;20479;-76
2022/01/12 12:49:09;;;;;;;21.80;7.38;;;6.00;99.90;;;;;;4804116;29;20051;-76
2022/01/12 12:51:34;;;;;;;30.52;6.72;;;6.00;99.90;;;;;;4804769;29;20107;-76
2022/01/12 12:54:00;;;;;;;20.42;6.35;;;6.20;99.90;;;;;;4805336;29;20057;-76
2022/01/12 12:56:28;;;;;;;16.27;6.45;;;6.20;99.90;;;;;;4805176;29;20486;-76
2022/01/12 12:58:55;;;;;;;28.77;6.80;;;6.10;99.90;;;;;;4805216;29;20528;-76
2022/01/12 13:01:22;;;;;;;59.83;8.02;;;6.10;99.90;;;;;;4803970;29;20087;-76
2022/01/12 13:03:54;;;;;;;44.22;7.05;;;6.10;99.90;;;;;;4803366;29;20059;-76
2022/01/12 13:06:28;;;;;;;52.83;7.88;;;6.10;99.90;;;;;;4803656;29;20090;-77
2022/01/12 13:08:57;;;;;;;44.75;7.75;;;6.20;99.90;;;;;;4804805;29;20405;-76
2022/01/12 13:11:36;;;;;;;59.78;7.72;;;6.20;99.90;;;;;;4805034;29;20059;-76
2022/01/12 13:14:04;;;;;;;77.80;7.97;;;6.10;99.90;;;;;;4804019;29;20104;-77
2022/01/12 13:16:30;;;;;;;70.60;7.80;;;6.10;99.90;;;;;;4805070;29;20051;-76
2022/01/12 13:19:05;;;;;;;46.17;7.68;;;6.00;99.90;;;;;;4803737;29;20376;-76
2022/01/12 13:21:35;;;;;;;47.65;7.97;;;6.10;99.90;;;;;;4804232;29;20058;-76
2022/01/12 13:24:01;;;;;;;89.32;8.90;;;5.90;99.90;;;;;;4804513;29;20050;-76
2022/01/12 13:26:31;;;;;;;43.03;10.13;;;6.00;99.90;;;;;;4804272;29;20124;-76
2022/01/12 13:28:57;;;;;;;52.88;9.15;;;6.00;99.90;;;;;;4791243;29;20125;-76
2022/01/12 13:31:23;;;;;;;108.28;9.63;;;6.20;99.90;;;;;;4806742;29;20565;-76
2022/01/12 13:33:51;;;;;;;72.80;9.15;;;6.00;99.90;;;;;;4807740;29;20092;-76
2022/01/12 13:36:21;;;;;;;35.20;8.80;;;6.10;99.90;;;;;;4792085;29;20063;-76
2022/01/12 13:38:56;;;;;;;65.25;9.00;;;6.10;99.90;;;;;;4806441;29;20119;-77
2022/01/12 13:41:25;;;;;;;47.33;9.27;;;6.00;99.90;;;;;;4808008;29;20141;-78
2022/01/12 13:44:06;;;;;;;59.08;9.70;;;6.00;99.90;;;;;;4807514;29;20047;-77
2022/01/12 13:46:37;;;;;;;28.08;8.60;;;6.10;99.90;;;;;;4806829;29;20058;-78
2022/01/12 13:51:39;;;;;;;29.23;9.23;;;6.00;99.90;;;;;;4807857;29;20055;-79
2022/01/12 13:54:12;;;;;;;41.85;9.48;;;6.10;99.90;;;;;;4807803;29;20047;-78
2022/01/12 13:56:43;;;;;;;41.33;9.85;;;6.10;99.90;;;;;;4791345;29;20051;-78
2022/01/12 13:59:09;;;;;;;26.10;10.68;;;6.10;99.90;;;;;;4807742;29;20391;-79
2022/01/12 14:01:37;;;;;;;26.27;10.52;;;6.30;99.90;;;;;;4807680;29;20058;-78
2022/01/12 14:04:22;;;;;;;25.05;10.23;;;6.10;99.90;;;;;;4807559;29;20055;-78
2022/01/12 14:06:51;;;;;;;21.25;10.35;;;6.20;99.90;;;;;;4806286;29;20065;-78
2022/01/12 14:09:26;;;;;;;26.10;10.93;;;6.10;99.90;;;;;;4807528;29;20046;-79
2022/01/12 14:11:52;;;;;;;28.08;10.63;;;6.30;99.90;;;;;;4807150;29;20068;-79
2022/01/12 14:14:18;;;;;;;23.35;10.43;;;6.20;99.90;;;;;;4807496;29;20137;-79